AirNav   Pilot Hours Calculator
 
 767 users online  

6S6 Powers Airport
Powers, Oregon, USA

GOING TO POWERS?


FAA INFORMATION EFFECTIVE 01 DECEMBER 2022

Location

FAA Identifier: 6S6
Lat/Long: 42-52-09.7000N 124-03-32.5000W
42-52.161667N 124-03.541667W
42.8693611,-124.0590278
(estimated)
Elevation: 326 ft. / 99 m (estimated)
Variation: 18E (1985)
From city: 1 mile SE of POWERS, OR
Time zone: UTC -8 (UTC -7 during Daylight Saving Time)
Zip code: 97466

Airport Operations

Airport use: Open to the public
Activation date: 01/1961
Control tower: no
ARTCC: SEATTLE CENTER
FSS: MC MINNVILLE FLIGHT SERVICE STATION
NOTAMs facility: MMV (NOTAM-D service available)
Attendance: UNATNDD
Wind indicator: yes
Segmented circle: no

Airport Communications

CTAF: 122.9

Nearby radio navigation aids

VOR radial/distance  VOR name  Freq  Var
OTHr157/33.1NORTH BEND VOR/DME112.1015E
RBGr219/36.2ROSEBURG VOR/DME108.2020E

Airport Services

Parking: tiedowns
Airframe service: NONE
Powerplant service: NONE
Bottled oxygen: NONE
Bulk oxygen: NONE

Runway Information

Runway 13/31

Dimensions: 2500 x 60 ft. / 762 x 18 m
Surface: turf, in good condition
Runway edge markings: RWY 31 THLD MKD WITH WHITE TIRES.
RUNWAY 13  RUNWAY 31
Latitude: 42-52.339487N42-51.984965N
Longitude: 124-03.683168W124-03.398705W
Elevation: 326.0 ft.326.0 ft.
Traffic pattern: leftleft
Runway heading: 131 magnetic, 149 true311 magnetic, 329 true
Markings: , in poor conditionNSTD
Obstructions: 80 ft. trees, 700 ft. from runway, 8:1 slope to clear12 ft. trees, 45 ft. from runway, 3:1 slope to clear

Airport Ownership and Management from official FAA records

Ownership: Publicly-owned
Owner: PORT OF COQUILLE RIVER
PO BOX 640
MYRTLE POINT, OR 97458
Phone (541) 572-2737
Manager: PORT OF COQUILLE RIVER
PO BOX 640
MYRTLE POINT, OR 97458
Phone (541) 572-2737

Airport Operational Statistics

Aircraft based on the field: 1
Ultralights: 1
    
Aircraft operations: avg 33/month *
100% transient general aviation
* for 12-month period ending 23 February 2018

Additional Remarks

ARPT IN VALLEY SURROUNDED BY HIGH TERRAIN.
LIVESTOCK AND WILDLIFE ON & INVOF OF ARPT.
FOR CD CTC SEATTLE ARTCC AT 253-351-3694.
RWY 31 HAS 25 FT TREES WI 35 FT OF CNTRLN ALG EDGE TO 1700 FT FM THR.

Instrument Procedures

There are no published instrument procedures at 6S6.

Some nearby airports with instrument procedures:

4S1 - Gold Beach Municipal Airport (32 nm SW)
KOTH - Southwest Oregon Regional Airport (34 nm N)
3S8 - Grants Pass Airport (37 nm SE)
KRBG - Roseburg Regional Airport (38 nm NE)
KMFR - Rogue Valley International - Medford Airport (60 nm SE)
 
Loc | Ops | Rwys | IFR | FBO | Links
Com | Nav | Svcs | Stats | Notes
Area around 6S6 (Powers Airport)
 
Road maps at: MapQuest Bing Google
 
Aerial photo
WARNING: Photo may not be current or correct
Aerial photo of 6S6 (Powers Airport)
Do you have a better or more recent aerial photo of Powers Airport that you would like to share? If so, please send us your photo.

 
Sectional chart

 
Airport distance calculator
Flying to Powers Airport? Find the distance to fly.

From to 6S6

Sunrise and sunset
Times for 01-Dec-2022
 Local
(UTC-8)
 Zulu
(UTC)
Morning civil twilight06:5714:57
Sunrise07:2815:28
Sunset16:4200:42
Evening civil twilight17:1401:14

Current date and time
Zulu (UTC)  02-Dec-2022 04:34:11
Local (UTC-8)  01-Dec-2022 20:34:11
 
METAR
KOTH 
34nm N 
020356Z 15007KT 10SM CLR 02/02 A2999 RMK AO2 SLP154 T00220017
KSXT 
35nm SE 
020421Z AUTO VRB03KT 3/4SM BR FEW001 SCT011 BKN065 M03/M06 A2984 RMK AO2 T10331056
K3S8 
37nm SE 
020415Z AUTO 00000KT 7SM CLR M00/M01 A2999 RMK AO2
KRBG 
38nm NE 
020353Z AUTO 00000KT 10SM SCT036 BKN047 01/00 A2997 RMK AO2 UPB17E20SNE17 SLP153 P0001 T00110000 $
KBOK 
49nm S 
020356Z AUTO 08003KT 10SM BKN060 01/01 A3000 RMK AO2 SLP162 T00110011 $
TAF
KOTH 
34nm N 
011720Z 0118/0218 24008KT P6SM -SHRA BKN020 OVC040 FM012100 27011KT P6SM -SHRA SCT025 BKN050 FM020200 VRB03KT P6SM -SHRA BKN050 FM020500 15005KT P6SM -SHRA OVC040 FM021200 16008KT P6SM -SHRA OVC040
KRBG 
38nm NE 
011720Z 0118/0218 VRB03KT P6SM -SHRA SCT025 BKN050 FM020600 00000KT P6SM SCT020 OVC040 FM020900 00000KT 1/2SM FG OVC002 FM021600 VRB03KT 3SM BR BKN004
NOTAMs
Click for the latest NOTAMs
NOTAMs are issued by the DoD/FAA and will open in a separate window not controlled by AirNav.

 

 
 

Would you like to see your business listed on this page?

 If your business provides an interesting product or service to pilots, flight crews, aircraft, or users of the Powers Airport, you should consider listing it here.  To start the listing process, click on the button below
 
Add a business
 

Other Pages about Powers Airport

Update a link
 
Copyright © AirNav, LLC. All rights reserved. Privacy Policy  Contact